sensor_id;sensor_type;location;lat;lon;timestamp;noise_LAeq;noise_LA_min;noise_LA_max;noise_LA01;noise_LA95
45964;Laerm;31671;48.092;11.842;2024-01-15T00:02:11;29.32;27.94;30.67;;
45964;Laerm;31671;48.092;11.842;2024-01-15T00:04:40;29.29;28.04;30.47;;
45964;Laerm;31671;48.092;11.842;2024-01-15T00:07:06;29.39;28.01;31.26;;
45964;Laerm;31671;48.092;11.842;2024-01-15T00:09:32;29.32;27.99;30.81;;
45964;Laerm;31671;48.092;11.842;2024-01-15T00:11:59;29.23;27.99;31.96;;
45964;Laerm;31671;48.092;11.842;2024-01-15T00:14:24;29.25;27.72;30.44;;
45964;Laerm;31671;48.092;11.842;2024-01-15T00:16:50;29.31;28.00;30.45;;
45964;Laerm;31671;48.092;11.842;2024-01-15T00:19:16;29.33;27.99;30.56;;
45964;Laerm;31671;48.092;11.842;2024-01-15T00:21:41;29.29;28.02;39.71;;
45964;Laerm;31671;48.092;11.842;2024-01-15T00:24:07;29.35;27.84;31.79;;
45964;Laerm;31671;48.092;11.842;2024-01-15T00:26:33;36.99;27.93;72.34;;
45964;Laerm;31671;48.092;11.842;2024-01-15T00:28:59;54.76;28.07;90.95;;
45964;Laerm;31671;48.092;11.842;2024-01-15T00:31:24;33.40;27.87;54.01;;
45964;Laerm;31671;48.092;11.842;2024-01-15T00:33:50;29.75;27.90;53.70;;
45964;Laerm;31671;48.092;11.842;2024-01-15T00:36:16;29.48;27.73;41.52;;
45964;Laerm;31671;48.092;11.842;2024-01-15T00:38:41;29.53;27.83;46.75;;
45964;Laerm;31671;48.092;11.842;2024-01-15T00:41:07;29.41;27.77;41.28;;
45964;Laerm;31671;48.092;11.842;2024-01-15T00:43:33;30.01;28.10;51.53;;
45964;Laerm;31671;48.092;11.842;2024-01-15T00:46:01;30.99;27.97;58.56;;
45964;Laerm;31671;48.092;11.842;2024-01-15T00:48:27;33.40;27.74;57.66;;
45964;Laerm;31671;48.092;11.842;2024-01-15T00:50:52;29.50;27.98;43.41;;
45964;Laerm;31671;48.092;11.842;2024-01-15T00:53:18;30.17;27.79;51.59;;
45964;Laerm;31671;48.092;11.842;2024-01-15T00:55:44;32.15;27.90;58.84;;
45964;Laerm;31671;48.092;11.842;2024-01-15T00:58:09;34.69;27.73;66.73;;
45964;Laerm;31671;48.092;11.842;2024-01-15T01:00:35;30.84;27.85;59.44;;
45964;Laerm;31671;48.092;11.842;2024-01-15T01:03:01;34.43;27.87;64.09;;
45964;Laerm;31671;48.092;11.842;2024-01-15T01:05:26;33.44;27.94;58.26;;
45964;Laerm;31671;48.092;11.842;2024-01-15T01:07:52;37.96;28.13;72.28;;
45964;Laerm;31671;48.092;11.842;2024-01-15T01:10:18;35.96;28.17;61.42;;
45964;Laerm;31671;48.092;11.842;2024-01-15T01:12:43;30.47;28.07;49.71;;
45964;Laerm;31671;48.092;11.842;2024-01-15T01:15:09;36.40;28.04;60.85;;
45964;Laerm;31671;48.092;11.842;2024-01-15T01:17:35;30.12;28.25;51.63;;
45964;Laerm;31671;48.092;11.842;2024-01-15T01:20:00;29.70;28.21;47.84;;
45964;Laerm;31671;48.092;11.842;2024-01-15T01:22:26;29.77;27.90;45.29;;
45964;Laerm;31671;48.092;11.842;2024-01-15T01:24:52;30.87;27.89;49.07;;
45964;Laerm;31671;48.092;11.842;2024-01-15T01:27:17;35.64;28.33;59.92;;
45964;Laerm;31671;48.092;11.842;2024-01-15T01:29:43;31.67;28.25;52.66;;
45964;Laerm;31671;48.092;11.842;2024-01-15T01:32:09;34.29;28.20;58.84;;
45964;Laerm;31671;48.092;11.842;2024-01-15T01:34:39;32.63;28.03;57.21;;
45964;Laerm;31671;48.092;11.842;2024-01-15T01:37:05;36.89;28.05;62.74;;
45964;Laerm;31671;48.092;11.842;2024-01-15T01:39:30;32.51;28.26;56.85;;
45964;Laerm;31671;48.092;11.842;2024-01-15T01:41:56;33.78;28.30;57.48;;
45964;Laerm;31671;48.092;11.842;2024-01-15T01:44:22;29.84;28.13;46.96;;
45964;Laerm;31671;48.092;11.842;2024-01-15T01:46:49;30.73;28.17;52.09;;
45964;Laerm;31671;48.092;11.842;2024-01-15T01:49:15;29.79;28.23;47.64;;
45964;Laerm;31671;48.092;11.842;2024-01-15T01:51:40;30.96;27.95;49.83;;
45964;Laerm;31671;48.092;11.842;2024-01-15T01:54:06;31.15;28.24;53.78;;
45964;Laerm;31671;48.092;11.842;2024-01-15T01:56:33;31.28;28.31;51.63;;
45964;Laerm;31671;48.092;11.842;2024-01-15T01:58:59;31.15;28.14;58.94;;
45964;Laerm;31671;48.092;11.842;2024-01-15T02:01:28;31.55;28.18;59.11;;
45964;Laerm;31671;48.092;11.842;2024-01-15T02:03:54;31.20;28.26;54.70;;
45964;Laerm;31671;48.092;11.842;2024-01-15T02:06:20;29.58;27.95;38.25;;
45964;Laerm;31671;48.092;11.842;2024-01-15T02:08:45;30.92;28.10;56.33;;
45964;Laerm;31671;48.092;11.842;2024-01-15T02:11:11;30.69;28.25;52.73;;
45964;Laerm;31671;48.092;11.842;2024-01-15T02:13:38;30.48;27.96;48.61;;
45964;Laerm;31671;48.092;11.842;2024-01-15T02:16:04;29.75;28.10;47.50;;
45964;Laerm;31671;48.092;11.842;2024-01-15T02:18:37;34.09;28.10;57.77;;
45964;Laerm;31671;48.092;11.842;2024-01-15T02:21:04;31.12;28.10;55.67;;
45964;Laerm;31671;48.092;11.842;2024-01-15T02:23:30;30.01;28.08;49.39;;
45964;Laerm;31671;48.092;11.842;2024-01-15T02:25:55;30.69;28.04;57.89;;
45964;Laerm;31671;48.092;11.842;2024-01-15T02:28:21;30.71;28.08;51.61;;
45964;Laerm;31671;48.092;11.842;2024-01-15T02:30:47;31.62;27.94;56.51;;
45964;Laerm;31671;48.092;11.842;2024-01-15T02:33:12;31.77;28.16;54.32;;
45964;Laerm;31671;48.092;11.842;2024-01-15T02:35:38;30.01;28.23;42.76;;
45964;Laerm;31671;48.092;11.842;2024-01-15T02:38:07;29.71;28.23;40.34;;
45964;Laerm;31671;48.092;11.842;2024-01-15T02:40:33;32.32;28.13;62.30;;
45964;Laerm;31671;48.092;11.842;2024-01-15T02:42:59;29.55;28.23;37.84;;
45964;Laerm;31671;48.092;11.842;2024-01-15T02:45:25;29.63;28.11;42.13;;
45964;Laerm;31671;48.092;11.842;2024-01-15T02:47:51;30.57;28.30;50.59;;
45964;Laerm;31671;48.092;11.842;2024-01-15T02:50:16;31.11;28.10;49.11;;
45964;Laerm;31671;48.092;11.842;2024-01-15T02:52:42;30.62;28.16;54.43;;
45964;Laerm;31671;48.092;11.842;2024-01-15T02:55:08;29.54;28.04;40.36;;
45964;Laerm;31671;48.092;11.842;2024-01-15T02:57:34;29.87;28.22;47.01;;
45964;Laerm;31671;48.092;11.842;2024-01-15T02:59:59;29.53;28.32;38.56;;
45964;Laerm;31671;48.092;11.842;2024-01-15T03:02:25;31.00;27.95;53.92;;
45964;Laerm;31671;48.092;11.842;2024-01-15T03:04:51;30.04;28.04;51.33;;
45964;Laerm;31671;48.092;11.842;2024-01-15T03:07:17;29.72;28.14;45.96;;
45964;Laerm;31671;48.092;11.842;2024-01-15T03:09:42;29.75;28.26;42.76;;
45964;Laerm;31671;48.092;11.842;2024-01-15T03:12:08;32.22;28.17;55.78;;
45964;Laerm;31671;48.092;11.842;2024-01-15T03:14:34;45.99;28.35;68.95;;
45964;Laerm;31671;48.092;11.842;2024-01-15T03:17:00;29.97;28.26;44.66;;
45964;Laerm;31671;48.092;11.842;2024-01-15T03:19:26;30.92;28.24;51.37;;
45964;Laerm;31671;48.092;11.842;2024-01-15T03:21:52;32.25;28.11;54.47;;
45964;Laerm;31671;48.092;11.842;2024-01-15T03:24:18;30.51;27.85;44.95;;
45964;Laerm;31671;48.092;11.842;2024-01-15T03:26:43;31.49;27.69;51.72;;
45964;Laerm;31671;48.092;11.842;2024-01-15T03:29:09;32.85;28.25;52.83;;
45964;Laerm;31671;48.092;11.842;2024-01-15T03:31:35;30.43;28.15;47.95;;
45964;Laerm;31671;48.092;11.842;2024-01-15T03:34:00;29.62;28.17;43.72;;
45964;Laerm;31671;48.092;11.842;2024-01-15T03:36:26;34.19;28.25;58.21;;
45964;Laerm;31671;48.092;11.842;2024-01-15T03:38:52;31.24;28.34;59.52;;
45964;Laerm;31671;48.092;11.842;2024-01-15T03:41:17;31.89;28.00;60.27;;
45964;Laerm;31671;48.092;11.842;2024-01-15T03:43:43;30.06;28.23;47.79;;
45964;Laerm;31671;48.092;11.842;2024-01-15T03:46:09;29.79;28.34;42.02;;
45964;Laerm;31671;48.092;11.842;2024-01-15T03:48:35;31.25;28.12;50.78;;
45964;Laerm;31671;48.092;11.842;2024-01-15T03:51:00;29.59;28.29;36.87;;
45964;Laerm;31671;48.092;11.842;2024-01-15T03:53:26;29.68;28.33;46.66;;
45964;Laerm;31671;48.092;11.842;2024-01-15T03:55:52;30.22;28.35;45.75;;
45964;Laerm;31671;48.092;11.842;2024-01-15T03:58:18;30.26;28.33;50.38;;
45964;Laerm;31671;48.092;11.842;2024-01-15T04:00:43;29.64;27.89;43.68;;
45964;Laerm;31671;48.092;11.842;2024-01-15T04:03:09;31.83;28.23;54.36;;
45964;Laerm;31671;48.092;11.842;2024-01-15T04:05:35;29.70;28.09;43.46;;
45964;Laerm;31671;48.092;11.842;2024-01-15T04:08:00;29.67;28.22;43.99;;
45964;Laerm;31671;48.092;11.842;2024-01-15T04:10:26;29.63;28.15;42.16;;
45964;Laerm;31671;48.092;11.842;2024-01-15T04:12:52;29.57;27.87;40.71;;
45964;Laerm;31671;48.092;11.842;2024-01-15T04:15:18;30.81;28.30;48.49;;
45964;Laerm;31671;48.092;11.842;2024-01-15T04:17:43;29.67;28.13;38.02;;
45964;Laerm;31671;48.092;11.842;2024-01-15T04:20:09;31.14;27.95;55.74;;
45964;Laerm;31671;48.092;11.842;2024-01-15T04:22:35;29.52;28.34;34.67;;
45964;Laerm;31671;48.092;11.842;2024-01-15T04:25:01;30.20;28.09;47.53;;
45964;Laerm;31671;48.092;11.842;2024-01-15T04:27:27;29.54;28.01;35.85;;
45964;Laerm;31671;48.092;11.842;2024-01-15T04:29:53;29.64;28.37;39.90;;
45964;Laerm;31671;48.092;11.842;2024-01-15T04:32:18;29.69;28.28;41.25;;
45964;Laerm;31671;48.092;11.842;2024-01-15T04:34:44;29.54;28.21;31.01;;
45964;Laerm;31671;48.092;11.842;2024-01-15T04:37:10;29.56;28.11;38.57;;
45964;Laerm;31671;48.092;11.842;2024-01-15T04:39:36;32.46;28.29;53.90;;
45964;Laerm;31671;48.092;11.842;2024-01-15T04:42:02;33.42;28.24;53.97;;
45964;Laerm;31671;48.092;11.842;2024-01-15T04:44:28;29.59;28.26;31.39;;
45964;Laerm;31671;48.092;11.842;2024-01-15T04:46:53;29.58;28.28;33.33;;
45964;Laerm;31671;48.092;11.842;2024-01-15T04:49:19;29.52;28.16;32.47;;
45964;Laerm;31671;48.092;11.842;2024-01-15T04:51:45;30.45;28.19;47.97;;
45964;Laerm;31671;48.092;11.842;2024-01-15T04:54:10;33.16;28.27;52.11;;
45964;Laerm;31671;48.092;11.842;2024-01-15T04:56:36;29.53;28.24;32.69;;
45964;Laerm;31671;48.092;11.842;2024-01-15T04:59:02;34.57;28.36;59.70;;
45964;Laerm;31671;48.092;11.842;2024-01-15T05:01:33;29.74;28.17;42.43;;
45964;Laerm;31671;48.092;11.842;2024-01-15T05:03:59;29.59;28.22;33.13;;
45964;Laerm;31671;48.092;11.842;2024-01-15T05:06:25;29.53;28.34;32.29;;
45964;Laerm;31671;48.092;11.842;2024-01-15T05:08:50;29.50;28.01;30.89;;
45964;Laerm;31671;48.092;11.842;2024-01-15T05:11:16;29.49;28.22;31.49;;
45964;Laerm;31671;48.092;11.842;2024-01-15T05:13:42;29.55;28.24;34.52;;
45964;Laerm;31671;48.092;11.842;2024-01-15T05:16:07;29.56;28.12;31.04;;
45964;Laerm;31671;48.092;11.842;2024-01-15T05:18:33;29.55;28.33;38.34;;
45964;Laerm;31671;48.092;11.842;2024-01-15T05:20:59;29.89;28.03;36.14;;
45964;Laerm;31671;48.092;11.842;2024-01-15T05:23:25;29.81;28.10;39.83;;
45964;Laerm;31671;48.092;11.842;2024-01-15T05:25:50;29.66;28.36;36.06;;
45964;Laerm;31671;48.092;11.842;2024-01-15T05:28:16;32.01;28.27;53.08;;
45964;Laerm;31671;48.092;11.842;2024-01-15T05:30:42;29.58;28.25;38.87;;
45964;Laerm;31671;48.092;11.842;2024-01-15T05:33:07;29.58;28.39;33.46;;
45964;Laerm;31671;48.092;11.842;2024-01-15T05:35:33;29.81;28.29;38.84;;
45964;Laerm;31671;48.092;11.842;2024-01-15T05:37:59;29.51;28.03;30.83;;
45964;Laerm;31671;48.092;11.842;2024-01-15T05:40:25;29.53;28.10;31.01;;
45964;Laerm;31671;48.092;11.842;2024-01-15T05:42:51;29.71;28.44;41.20;;
45964;Laerm;31671;48.092;11.842;2024-01-15T05:45:16;29.52;28.20;31.90;;
45964;Laerm;31671;48.092;11.842;2024-01-15T05:47:42;29.59;28.16;31.43;;
45964;Laerm;31671;48.092;11.842;2024-01-15T05:50:08;29.57;28.22;31.40;;
45964;Laerm;31671;48.092;11.842;2024-01-15T05:52:33;29.68;28.09;35.95;;
45964;Laerm;31671;48.092;11.842;2024-01-15T05:54:59;30.75;28.25;48.29;;
45964;Laerm;31671;48.092;11.842;2024-01-15T05:57:25;29.78;28.33;45.95;;
45964;Laerm;31671;48.092;11.842;2024-01-15T05:59:50;29.64;28.08;40.54;;
45964;Laerm;31671;48.092;11.842;2024-01-15T06:02:16;29.54;28.18;31.09;;
45964;Laerm;31671;48.092;11.842;2024-01-15T06:04:42;31.81;28.05;49.85;;
45964;Laerm;31671;48.092;11.842;2024-01-15T06:07:08;30.38;28.44;51.75;;
45964;Laerm;31671;48.092;11.842;2024-01-15T06:09:33;29.80;27.92;42.69;;
45964;Laerm;31671;48.092;11.842;2024-01-15T06:11:59;35.85;28.03;57.17;;
45964;Laerm;31671;48.092;11.842;2024-01-15T06:14:25;29.68;28.21;39.46;;
45964;Laerm;31671;48.092;11.842;2024-01-15T06:16:50;29.62;28.33;35.87;;
45964;Laerm;31671;48.092;11.842;2024-01-15T06:19:16;29.54;28.11;38.38;;
45964;Laerm;31671;48.092;11.842;2024-01-15T06:21:42;29.58;28.34;31.59;;
45964;Laerm;31671;48.092;11.842;2024-01-15T06:24:07;30.17;28.28;52.97;;
45964;Laerm;31671;48.092;11.842;2024-01-15T06:26:33;29.66;28.46;32.16;;
45964;Laerm;31671;48.092;11.842;2024-01-15T06:28:58;31.25;28.24;47.35;;
45964;Laerm;31671;48.092;11.842;2024-01-15T06:31:24;31.96;28.18;51.97;;
45964;Laerm;31671;48.092;11.842;2024-01-15T06:33:50;30.96;28.27;51.42;;
45964;Laerm;31671;48.092;11.842;2024-01-15T06:36:15;29.90;28.45;45.77;;
45964;Laerm;31671;48.092;11.842;2024-01-15T06:38:43;30.42;28.27;45.70;;
45964;Laerm;31671;48.092;11.842;2024-01-15T06:41:09;29.67;28.36;33.47;;
45964;Laerm;31671;48.092;11.842;2024-01-15T06:43:34;29.59;28.16;33.22;;
45964;Laerm;31671;48.092;11.842;2024-01-15T06:46:00;29.59;27.98;32.55;;
45964;Laerm;31671;48.092;11.842;2024-01-15T06:48:26;29.66;28.28;34.75;;
45964;Laerm;31671;48.092;11.842;2024-01-15T06:50:51;29.65;28.17;34.44;;
45964;Laerm;31671;48.092;11.842;2024-01-15T06:53:17;30.72;28.32;53.21;;
45964;Laerm;31671;48.092;11.842;2024-01-15T06:55:43;29.70;28.36;34.00;;
45964;Laerm;31671;48.092;11.842;2024-01-15T06:58:08;29.55;28.03;35.48;;
45964;Laerm;31671;48.092;11.842;2024-01-15T07:00:34;29.60;28.21;33.02;;
45964;Laerm;31671;48.092;11.842;2024-01-15T07:03:00;29.58;28.09;31.21;;
45964;Laerm;31671;48.092;11.842;2024-01-15T07:05:25;29.70;28.09;32.59;;
45964;Laerm;31671;48.092;11.842;2024-01-15T07:07:51;29.56;28.16;32.45;;
45964;Laerm;31671;48.092;11.842;2024-01-15T07:10:17;29.61;28.37;31.44;;
45964;Laerm;31671;48.092;11.842;2024-01-15T07:12:42;29.59;28.14;32.60;;
45964;Laerm;31671;48.092;11.842;2024-01-15T07:15:08;29.50;28.07;30.87;;
45964;Laerm;31671;48.092;11.842;2024-01-15T07:17:34;29.52;28.30;32.44;;
45964;Laerm;31671;48.092;11.842;2024-01-15T07:20:00;29.54;28.10;34.63;;
45964;Laerm;31671;48.092;11.842;2024-01-15T07:22:26;29.62;28.26;32.22;;
45964;Laerm;31671;48.092;11.842;2024-01-15T07:24:52;29.63;28.29;39.84;;
45964;Laerm;31671;48.092;11.842;2024-01-15T07:27:17;29.86;28.45;36.73;;
45964;Laerm;31671;48.092;11.842;2024-01-15T07:29:43;29.77;28.36;34.03;;
45964;Laerm;31671;48.092;11.842;2024-01-15T07:32:09;30.01;28.46;34.88;;
45964;Laerm;31671;48.092;11.842;2024-01-15T07:34:34;29.66;28.21;32.64;;
45964;Laerm;31671;48.092;11.842;2024-01-15T07:37:00;30.13;28.39;47.00;;
45964;Laerm;31671;48.092;11.842;2024-01-15T07:39:26;29.58;28.16;34.40;;
45964;Laerm;31671;48.092;11.842;2024-01-15T07:41:51;29.53;27.85;30.91;;
45964;Laerm;31671;48.092;11.842;2024-01-15T07:44:17;29.79;28.28;44.10;;
45964;Laerm;31671;48.092;11.842;2024-01-15T07:46:46;29.69;28.30;37.81;;
45964;Laerm;31671;48.092;11.842;2024-01-15T07:49:12;29.60;28.21;31.89;;
45964;Laerm;31671;48.092;11.842;2024-01-15T07:51:37;29.55;28.09;31.11;;
45964;Laerm;31671;48.092;11.842;2024-01-15T07:54:03;29.55;28.16;31.19;;
45964;Laerm;31671;48.092;11.842;2024-01-15T07:56:29;29.50;28.31;30.95;;
45964;Laerm;31671;48.092;11.842;2024-01-15T07:58:55;29.54;28.20;30.88;;
45964;Laerm;31671;48.092;11.842;2024-01-15T08:01:21;29.53;28.27;30.90;;
45964;Laerm;31671;48.092;11.842;2024-01-15T08:03:47;29.64;28.27;31.46;;
45964;Laerm;31671;48.092;11.842;2024-01-15T08:06:13;29.57;28.12;41.31;;
45964;Laerm;31671;48.092;11.842;2024-01-15T08:08:38;29.58;28.30;38.53;;
45964;Laerm;31671;48.092;11.842;2024-01-15T08:11:04;29.82;28.31;42.31;;
45964;Laerm;31671;48.092;11.842;2024-01-15T08:13:30;30.83;28.37;46.58;;
45964;Laerm;31671;48.092;11.842;2024-01-15T08:15:56;30.50;28.09;45.81;;
45964;Laerm;31671;48.092;11.842;2024-01-15T08:18:21;29.81;28.35;44.09;;
45964;Laerm;31671;48.092;11.842;2024-01-15T08:20:47;33.58;28.23;54.60;;
45964;Laerm;31671;48.092;11.842;2024-01-15T08:23:13;31.12;28.29;46.22;;
45964;Laerm;31671;48.092;11.842;2024-01-15T08:25:38;30.50;28.29;49.85;;
45964;Laerm;31671;48.092;11.842;2024-01-15T08:28:04;31.06;28.19;51.42;;
45964;Laerm;31671;48.092;11.842;2024-01-15T08:30:30;31.43;27.79;49.46;;
45964;Laerm;31671;48.092;11.842;2024-01-15T08:32:56;31.04;28.35;49.53;;
45964;Laerm;31671;48.092;11.842;2024-01-15T08:35:22;32.65;28.23;57.05;;
45964;Laerm;31671;48.092;11.842;2024-01-15T08:37:50;29.99;28.06;47.19;;
45964;Laerm;31671;48.092;11.842;2024-01-15T08:40:16;31.14;28.27;51.30;;
45964;Laerm;31671;48.092;11.842;2024-01-15T08:42:42;32.95;28.46;55.61;;
45964;Laerm;31671;48.092;11.842;2024-01-15T08:45:08;30.90;28.32;50.01;;
45964;Laerm;31671;48.092;11.842;2024-01-15T08:47:34;29.76;28.22;42.55;;
45964;Laerm;31671;48.092;11.842;2024-01-15T08:49:59;32.27;28.12;52.16;;
45964;Laerm;31671;48.092;11.842;2024-01-15T08:52:25;34.39;28.15;55.81;;
45964;Laerm;31671;48.092;11.842;2024-01-15T08:54:51;40.83;27.99;63.96;;
45964;Laerm;31671;48.092;11.842;2024-01-15T08:57:17;35.35;28.22;60.29;;
45964;Laerm;31671;48.092;11.842;2024-01-15T08:59:42;36.89;28.23;57.09;;
45964;Laerm;31671;48.092;11.842;2024-01-15T09:02:08;45.83;28.37;67.53;;
45964;Laerm;31671;48.092;11.842;2024-01-15T09:04:34;35.58;28.38;60.19;;
45964;Laerm;31671;48.092;11.842;2024-01-15T09:06:59;42.47;28.39;62.45;;
45964;Laerm;31671;48.092;11.842;2024-01-15T09:09:25;33.16;28.44;52.64;;
45964;Laerm;31671;48.092;11.842;2024-01-15T09:11:51;30.83;28.43;47.85;;
45964;Laerm;31671;48.092;11.842;2024-01-15T09:14:17;34.56;28.46;57.17;;
45964;Laerm;31671;48.092;11.842;2024-01-15T09:16:42;33.17;28.31;55.32;;
45964;Laerm;31671;48.092;11.842;2024-01-15T09:19:08;29.88;28.41;45.20;;
45964;Laerm;31671;48.092;11.842;2024-01-15T09:21:34;30.37;27.94;49.35;;
45964;Laerm;31671;48.092;11.842;2024-01-15T09:23:59;30.40;28.38;47.00;;
45964;Laerm;31671;48.092;11.842;2024-01-15T09:26:25;32.80;28.20;56.51;;
45964;Laerm;31671;48.092;11.842;2024-01-15T09:28:51;29.78;28.24;41.48;;
45964;Laerm;31671;48.092;11.842;2024-01-15T09:31:17;29.60;28.29;34.38;;
45964;Laerm;31671;48.092;11.842;2024-01-15T09:33:43;36.08;28.26;61.79;;
45964;Laerm;31671;48.092;11.842;2024-01-15T09:36:09;30.18;28.41;43.82;;
45964;Laerm;31671;48.092;11.842;2024-01-15T09:38:34;30.43;28.25;49.83;;
45964;Laerm;31671;48.092;11.842;2024-01-15T09:41:00;29.79;28.10;36.72;;
45964;Laerm;31671;48.092;11.842;2024-01-15T09:43:26;29.68;28.49;34.27;;
45964;Laerm;31671;48.092;11.842;2024-01-15T09:45:51;30.61;28.07;55.89;;
45964;Laerm;31671;48.092;11.842;2024-01-15T09:48:18;33.94;28.32;60.46;;
45964;Laerm;31671;48.092;11.842;2024-01-15T09:50:45;30.98;28.22;48.22;;
45964;Laerm;31671;48.092;11.842;2024-01-15T09:53:10;29.67;28.19;42.17;;
45964;Laerm;31671;48.092;11.842;2024-01-15T09:55:37;32.14;28.11;51.71;;
45964;Laerm;31671;48.092;11.842;2024-01-15T09:58:02;30.96;28.24;49.21;;
45964;Laerm;31671;48.092;11.842;2024-01-15T10:00:28;29.75;28.18;47.41;;
45964;Laerm;31671;48.092;11.842;2024-01-15T10:02:54;29.95;28.36;43.91;;
45964;Laerm;31671;48.092;11.842;2024-01-15T10:05:20;31.03;28.11;50.17;;
45964;Laerm;31671;48.092;11.842;2024-01-15T10:07:45;29.75;28.37;37.20;;
45964;Laerm;31671;48.092;11.842;2024-01-15T10:10:11;29.72;28.31;38.22;;
45964;Laerm;31671;48.092;11.842;2024-01-15T10:12:37;30.05;28.30;44.43;;
45964;Laerm;31671;48.092;11.842;2024-01-15T10:15:03;30.02;28.51;41.18;;
45964;Laerm;31671;48.092;11.842;2024-01-15T10:17:29;30.00;28.58;39.72;;
45964;Laerm;31671;48.092;11.842;2024-01-15T10:19:54;29.96;28.48;33.54;;
45964;Laerm;31671;48.092;11.842;2024-01-15T10:22:20;31.35;28.41;50.77;;
45964;Laerm;31671;48.092;11.842;2024-01-15T10:24:46;29.89;28.62;36.46;;
45964;Laerm;31671;48.092;11.842;2024-01-15T10:27:11;32.92;28.72;52.36;;
45964;Laerm;31671;48.092;11.842;2024-01-15T10:29:37;30.59;28.14;45.62;;
45964;Laerm;31671;48.092;11.842;2024-01-15T10:32:06;30.30;28.34;47.62;;
45964;Laerm;31671;48.092;11.842;2024-01-15T10:34:32;32.52;28.64;53.70;;
45964;Laerm;31671;48.092;11.842;2024-01-15T10:36:57;30.06;28.70;42.95;;
45964;Laerm;31671;48.092;11.842;2024-01-15T10:39:23;30.01;28.67;40.84;;
45964;Laerm;31671;48.092;11.842;2024-01-15T10:41:49;44.88;28.64;72.63;;
45964;Laerm;31671;48.092;11.842;2024-01-15T10:44:15;30.95;28.70;47.39;;
45964;Laerm;31671;48.092;11.842;2024-01-15T10:46:41;31.10;28.63;53.61;;
45964;Laerm;31671;48.092;11.842;2024-01-15T10:49:06;37.23;28.58;60.16;;
45964;Laerm;31671;48.092;11.842;2024-01-15T10:51:32;34.84;28.55;54.70;;
45964;Laerm;31671;48.092;11.842;2024-01-15T10:53:59;35.23;28.67;56.70;;
45964;Laerm;31671;48.092;11.842;2024-01-15T10:56:25;31.04;28.73;56.00;;
45964;Laerm;31671;48.092;11.842;2024-01-15T10:58:51;31.16;28.86;50.14;;
45964;Laerm;31671;48.092;11.842;2024-01-15T11:01:17;33.46;28.56;58.14;;
45964;Laerm;31671;48.092;11.842;2024-01-15T11:03:43;30.95;28.60;50.13;;
45964;Laerm;31671;48.092;11.842;2024-01-15T11:06:18;30.61;28.75;44.67;;
45964;Laerm;31671;48.092;11.842;2024-01-15T11:08:44;37.94;28.78;65.14;;
45964;Laerm;31671;48.092;11.842;2024-01-15T11:11:10;32.19;28.67;51.48;;
45964;Laerm;31671;48.092;11.842;2024-01-15T11:16:02;30.48;28.60;43.58;;
45964;Laerm;31671;48.092;11.842;2024-01-15T11:18:29;34.12;28.75;60.84;;
45964;Laerm;31671;48.092;11.842;2024-01-15T11:21:37;45.26;29.05;67.76;;
45964;Laerm;31671;48.092;11.842;2024-01-15T11:23:54;33.76;28.90;54.23;;
45964;Laerm;31671;48.092;11.842;2024-01-15T11:26:30;32.02;28.86;51.11;;
45964;Laerm;31671;48.092;11.842;2024-01-15T11:28:56;30.85;29.04;46.24;;
45964;Laerm;31671;48.092;11.842;2024-01-15T11:34:07;33.53;29.03;56.91;;
45964;Laerm;31671;48.092;11.842;2024-01-15T11:42:00;33.38;28.93;53.61;;
45964;Laerm;31671;48.092;11.842;2024-01-15T11:44:26;33.15;28.94;58.58;;
45964;Laerm;31671;48.092;11.842;2024-01-15T11:46:59;31.16;28.81;52.05;;
45964;Laerm;31671;48.092;11.842;2024-01-15T11:51:53;31.86;29.01;48.24;;
45964;Laerm;31671;48.092;11.842;2024-01-15T11:54:20;31.07;28.89;51.81;;
45964;Laerm;31671;48.092;11.842;2024-01-15T11:56:49;31.51;29.04;53.97;;
45964;Laerm;31671;48.092;11.842;2024-01-15T11:59:15;33.57;28.62;64.58;;
45964;Laerm;31671;48.092;11.842;2024-01-15T12:01:40;31.08;29.09;48.21;;
45964;Laerm;31671;48.092;11.842;2024-01-15T12:04:06;30.24;28.61;36.09;;
45964;Laerm;31671;48.092;11.842;2024-01-15T12:06:32;30.05;28.91;34.47;;
45964;Laerm;31671;48.092;11.842;2024-01-15T12:09:07;30.27;28.75;40.99;;
45964;Laerm;31671;48.092;11.842;2024-01-15T12:11:32;30.19;28.77;41.53;;
45964;Laerm;31671;48.092;11.842;2024-01-15T12:14:00;30.18;28.71;35.15;;
45964;Laerm;31671;48.092;11.842;2024-01-15T12:16:25;31.12;28.88;51.79;;
45964;Laerm;31671;48.092;11.842;2024-01-15T12:18:51;32.31;28.90;56.03;;
45964;Laerm;31671;48.092;11.842;2024-01-15T12:21:17;31.03;28.74;42.18;;
45964;Laerm;31671;48.092;11.842;2024-01-15T12:23:45;30.08;28.68;37.30;;
45964;Laerm;31671;48.092;11.842;2024-01-15T12:26:11;30.05;28.58;33.97;;
45964;Laerm;31671;48.092;11.842;2024-01-15T12:28:37;30.01;28.83;33.31;;
45964;Laerm;31671;48.092;11.842;2024-01-15T12:31:02;30.23;28.78;37.30;;
45964;Laerm;31671;48.092;11.842;2024-01-15T12:33:28;30.43;28.72;47.85;;
45964;Laerm;31671;48.092;11.842;2024-01-15T12:35:54;30.22;28.50;41.11;;
45964;Laerm;31671;48.092;11.842;2024-01-15T12:38:19;30.33;28.66;38.38;;
45964;Laerm;31671;48.092;11.842;2024-01-15T12:40:45;31.15;28.56;52.19;;
45964;Laerm;31671;48.092;11.842;2024-01-15T12:43:11;30.67;28.58;51.95;;
45964;Laerm;31671;48.092;11.842;2024-01-15T12:45:36;29.90;28.47;42.58;;
45964;Laerm;31671;48.092;11.842;2024-01-15T12:48:03;30.87;28.37;52.95;;
45964;Laerm;31671;48.092;11.842;2024-01-15T12:50:28;35.52;28.41;66.26;;
45964;Laerm;31671;48.092;11.842;2024-01-15T12:52:54;32.07;28.47;56.21;;
45964;Laerm;31671;48.092;11.842;2024-01-15T12:55:20;34.24;28.58;58.60;;
45964;Laerm;31671;48.092;11.842;2024-01-15T12:57:45;30.35;28.52;40.57;;
45964;Laerm;31671;48.092;11.842;2024-01-15T13:00:11;30.25;28.46;47.41;;
45964;Laerm;31671;48.092;11.842;2024-01-15T13:02:40;32.26;28.50;52.59;;
45964;Laerm;31671;48.092;11.842;2024-01-15T13:05:07;30.14;28.21;46.98;;
45964;Laerm;31671;48.092;11.842;2024-01-15T13:07:33;30.00;28.51;36.95;;
45964;Laerm;31671;48.092;11.842;2024-01-15T13:09:59;32.20;28.74;51.39;;
45964;Laerm;31671;48.092;11.842;2024-01-15T13:12:25;30.14;28.48;43.58;;
45964;Laerm;31671;48.092;11.842;2024-01-15T13:14:51;30.05;28.43;43.09;;
45964;Laerm;31671;48.092;11.842;2024-01-15T13:17:16;30.26;28.52;42.75;;
45964;Laerm;31671;48.092;11.842;2024-01-15T13:19:42;30.01;28.45;43.39;;
45964;Laerm;31671;48.092;11.842;2024-01-15T13:22:08;30.99;28.58;50.30;;
45964;Laerm;31671;48.092;11.842;2024-01-15T13:24:33;32.06;28.63;53.88;;
45964;Laerm;31671;48.092;11.842;2024-01-15T13:26:59;42.13;28.59;62.41;;
45964;Laerm;31671;48.092;11.842;2024-01-15T13:29:25;34.09;28.61;61.08;;
45964;Laerm;31671;48.092;11.842;2024-01-15T13:31:50;29.95;28.62;38.58;;
45964;Laerm;31671;48.092;11.842;2024-01-15T13:34:16;31.97;28.81;53.91;;
45964;Laerm;31671;48.092;11.842;2024-01-15T13:36:42;31.35;28.78;53.73;;
45964;Laerm;31671;48.092;11.842;2024-01-15T13:39:07;36.59;28.68;61.30;;